Norient Saturn — D5JP2 — position and weather

sailwx.info

Track history (hours):
 
Tides and Currents Weather Stations Pressure Air Temp Water Temp Dewpoint Dewpoint Depression Visibility Wind Speed Wind Dir Waves Ship Positions

Norient Saturn

Last reported at 2017-Nov-20 00:30 UTC. Time now 2017-Nov-21 11:55 UTC.
Position N 55°41' E 015°35'.

Length 180 m; draft 6.5 m.

Type: Tanker. MMSI: 636092659.

Date/timePositionNaut miles runAvg speedWind from/ knotsBaromVisibWave heightAir tempDewpointWater temp
2017-Nov-20 00:30N 55°41' E 015°35'611.6
2017-Nov-20 00:00N 55°38' E 015°26'611.7
2017-Nov-19 23:30N 55°35' E 015°17'611.5
2017-Nov-19 22:59N 55°33' E 015°08'511.4
2017-Nov-19 22:30N 55°30' E 014°59'611.3
2017-Nov-19 22:00N 55°27' E 014°50'611.1
2017-Nov-19 21:30N 55°25' E 014°42'510.5
2017-Nov-19 21:00N 55°21' E 014°36'5 9.8
2017-Nov-19 20:30N 55°17' E 014°31'510.4
2017-Nov-19 20:00N 55°13' E 014°25'510.4
2017-Nov-19 19:30N 55°11' E 014°17'811.4
2017-Nov-19 18:47N 55°10' E 014°02'3111.8
2017-Nov-19 16:11N 55°12' E 013°09'212.1
2017-Nov-19 16:00N 55°13' E 013°05'612.5
2017-Nov-19 15:30N 55°14' E 012°54'713.2
2017-Nov-19 15:00N 55°17' E 012°44'510.8
2017-Nov-19 14:30N 55°21' E 012°39'612.8
2017-Nov-19 14:00N 55°27' E 012°41'611.2
2017-Nov-19 13:30N 55°32' E 012°46'611.7
2017-Nov-19 13:00N 55°37' E 012°53'5 9.8
2017-Nov-19 12:30N 55°41' E 012°54'713.9
2017-Nov-19 12:01N 55°47' E 012°48'713.7
2017-Nov-19 11:30N 55°54' E 012°44'714.6
2017-Nov-19 11:00N 56°01' E 012°40'713.2
2017-Nov-19 10:30N 56°06' E 012°33'4 7.1
2017-Nov-19 10:00N 56°08' E 012°28'611.5
2017-Nov-19 09:30N 56°12' E 012°20'5813.1
2017-Nov-19 05:06N 57°05' E 011°38'213.3
2017-Nov-19 04:59N 57°06' E 011°37'613.1
2017-Nov-19 04:29N 57°12' E 011°33'613.2
2017-Nov-19 04:00N 57°18' E 011°31'713.3
2017-Nov-19 03:30N 57°25' E 011°26'31 5.2
2017-Nov-18 21:37N 57°40' E 010°37'0 0.4
2017-Nov-18 21:23N 57°40' E 010°37'1 1.9
2017-Nov-18 21:00N 57°40' E 010°38'4 6.6
2017-Nov-18 20:28N 57°43' E 010°43'3 6.1
2017-Nov-18 20:00N 57°45' E 010°45'510.0
2017-Nov-18 19:30N 57°48' E 010°37'47210.9
2017-Nov-17 00:24N 51°35' E 002°20'513.7
2017-Nov-17 00:00N 51°30' E 002°14'713.4
2017-Nov-16 23:30N 51°25' E 002°08'612.6
2017-Nov-16 23:01N 51°19' E 002°07'612.7
2017-Nov-16 22:30N 51°13' E 002°02'713.5
2017-Nov-16 22:00N 51°10' E 001°53'713.2
2017-Nov-16 21:30N 51°07' E 001°43'612.7
2017-Nov-16 21:00N 51°02' E 001°36'612.3
2017-Nov-16 20:30N 50°58' E 001°29'611.5
2017-Nov-16 19:59N 50°53' E 001°25'611.8
2017-Nov-16 19:30N 50°47' E 001°23'6011.6
2017-Nov-16 14:21N 50°17' E 000°02'611.5
2017-Nov-16 13:52N 50°14' W 000°05'511.3
2017-Nov-16 13:26N 50°11' W 000°12'511.2
2017-Nov-16 13:00N 50°08' W 000°18'611.2
2017-Nov-16 12:30N 50°06' W 000°25'611.2
2017-Nov-16 12:00N 50°03' W 000°33'611.3
2017-Nov-16 11:30N 49°60' W 000°40'611.1
2017-Nov-16 11:00N 49°56' W 000°47'713.3
2017-Nov-16 10:30N 49°51' W 000°40'712.9
2017-Nov-16 10:00N 49°45' W 000°34'612.6
2017-Nov-16 09:30N 49°41' W 000°27'612.3
2017-Nov-16 09:00N 49°37' W 000°20'612.6
2017-Nov-16 08:30N 49°32' W 000°14'612.3
2017-Nov-16 08:01N 49°30' W 000°06'510.6
2017-Nov-16 07:30N 49°27' E 000°02'612.6
2017-Nov-16 07:00N 49°26' E 000°11'611.3
2017-Nov-16 06:30N 49°26' E 000°20'5 9.2
2017-Nov-16 06:00N 49°28' E 000°26'4 7.5
2017-Nov-16 05:30N 49°28' E 000°32'4 8.6
2017-Nov-16 05:00N 49°26' E 000°38'611.1
2017-Nov-16 04:30N 49°31' E 000°43'5 9.2
2017-Nov-16 04:00N 49°29' E 000°48'510.1
2017-Nov-16 03:31N 49°24' E 000°50'510.4
2017-Nov-16 03:00N 49°29' E 000°52'4 8.7
2017-Nov-16 02:30N 49°25' E 000°56'4 8.3
2017-Nov-16 02:00N 49°21' E 000°59'4 7.9
2017-Nov-16 01:30N 49°25' E 001°01'0 0.9
2017-Nov-16 01:00N 49°25' E 001°01'1 2.7
2017-Nov-16 00:28N 49°24' E 001°01'0 0.0
2017-Nov-15 23:58N 49°24' E 001°01'0 0.0
2017-Nov-15 23:28N 49°24' E 001°01'0 0.0
2017-Nov-15 22:58N 49°24' E 001°01'0 0.0
2017-Nov-15 22:28N 49°24' E 001°01'0 0.0
2017-Nov-15 21:58N 49°24' E 001°01'0 0.0
2017-Nov-15 21:28N 49°24' E 001°01'0 0.0
2017-Nov-15 20:58N 49°24' E 001°01'0 0.0
2017-Nov-15 20:28N 49°24' E 001°01'0 0.0
2017-Nov-15 19:58N 49°24' E 001°01'0 0.0
2017-Nov-15 19:28N 49°24' E 001°01'0 0.0
2017-Nov-15 18:58N 49°24' E 001°01'0 0.0
2017-Nov-15 18:28N 49°24' E 001°01'0 0.0
2017-Nov-15 17:58N 49°24' E 001°01'0 0.0
2017-Nov-15 17:28N 49°24' E 001°01'0 0.0
2017-Nov-15 16:58N 49°24' E 001°01'0 0.0
2017-Nov-15 16:28N 49°24' E 001°01'0 0.0
2017-Nov-15 15:58N 49°24' E 001°01'0 0.0
2017-Nov-15 15:28N 49°24' E 001°01'0 0.0
2017-Nov-15 14:58N 49°24' E 001°01'0 0.0
2017-Nov-15 14:28N 49°24' E 001°01'0 0.0
2017-Nov-15 13:58N 49°24' E 001°01'0 0.0
2017-Nov-15 13:28N 49°24' E 001°01'0 0.0
2017-Nov-15 12:58N 49°24' E 001°01'0 0.0
2017-Nov-15 12:25N 49°24' E 001°01'0 0.0
2017-Nov-15 11:58N 49°24' E 001°01'0 0.0
2017-Nov-15 11:28N 49°24' E 001°01'0 0.0
2017-Nov-15 10:58N 49°24' E 001°01'0 0.0
2017-Nov-15 10:28N 49°24' E 001°01'0 0.0
2017-Nov-15 09:58N 49°24' E 001°01'0 0.0
2017-Nov-15 09:28N 49°24' E 001°01'0 0.0
2017-Nov-15 08:58N 49°24' E 001°01'0 0.0
2017-Nov-15 08:28N 49°24' E 001°01'0 0.0
2017-Nov-15 07:58N 49°24' E 001°01'0 0.0
2017-Nov-15 07:28N 49°24' E 001°01'0 0.0
2017-Nov-15 06:58N 49°24' E 001°01'0 0.0
2017-Nov-15 06:28N 49°24' E 001°01'0 0.0
2017-Nov-15 05:58N 49°24' E 001°01'0 0.0
2017-Nov-15 05:28N 49°24' E 001°01'0 0.0
2017-Nov-15 04:58N 49°24' E 001°01'0 0.0
2017-Nov-15 04:28N 49°24' E 001°01'0 0.0
2017-Nov-15 03:55N 49°24' E 001°01'0 0.0
2017-Nov-15 03:28N 49°24' E 001°01'0 0.0
2017-Nov-15 02:58N 49°24' E 001°01'0 0.0
2017-Nov-15 02:28N 49°24' E 001°01'0 0.0
2017-Nov-15 01:58N 49°24' E 001°01'0 0.0
2017-Nov-15 01:28N 49°24' E 001°01'0 0.0
2017-Nov-15 00:58N 49°24' E 001°01'0 0.0
2017-Nov-15 00:28N 49°24' E 001°01'0 0.0
2017-Nov-14 23:58N 49°24' E 001°01'0 0.0
2017-Nov-14 23:25N 49°24' E 001°01'0 0.0
2017-Nov-14 22:58N 49°24' E 001°01'0 0.0
2017-Nov-14 22:28N 49°24' E 001°01'0 0.0
2017-Nov-14 21:58N 49°24' E 001°01'0 0.0
2017-Nov-14 21:28N 49°24' E 001°01'0 0.0
2017-Nov-14 20:58N 49°24' E 001°01'0 0.0
2017-Nov-14 20:25N 49°24' E 001°01'0 0.0
2017-Nov-14 19:58N 49°24' E 001°01'0 0.0
2017-Nov-14 19:28N 49°24' E 001°01'0 0.0
2017-Nov-14 18:58N 49°24' E 001°01'0 0.0
2017-Nov-14 18:28N 49°24' E 001°01'0 0.0
2017-Nov-14 17:58N 49°24' E 001°01'0 0.0
2017-Nov-14 17:28N 49°24' E 001°01'0 0.0
2017-Nov-14 16:58N 49°24' E 001°01'0 0.0
2017-Nov-14 16:28N 49°24' E 001°01'0 0.0
2017-Nov-14 15:58N 49°24' E 001°01'0 0.0
2017-Nov-14 15:28N 49°24' E 001°01'0 0.0
2017-Nov-14 14:58N 49°24' E 001°01'0 0.0
2017-Nov-14 14:28N 49°24' E 001°01'0 0.0
2017-Nov-14 13:58N 49°24' E 001°01'0 0.0
2017-Nov-14 13:28N 49°24' E 001°01'0 0.0
2017-Nov-14 12:58N 49°24' E 001°01'0 0.0
2017-Nov-14 12:28N 49°24' E 001°01'0 0.0
2017-Nov-14 11:58N 49°24' E 001°01'0 0.0
2017-Nov-14 11:28N 49°24' E 001°01'0 0.0
2017-Nov-14 10:58N 49°24' E 001°01'0 0.0
2017-Nov-14 10:28N 49°24' E 001°01'0 0.0
2017-Nov-14 09:58N 49°24' E 001°01'0 0.0
2017-Nov-14 09:28N 49°24' E 001°01'0 0.0
2017-Nov-14 08:58N 49°24' E 001°01'0 0.0
2017-Nov-14 08:28N 49°24' E 001°01'0 0.0
2017-Nov-14 07:58N 49°24' E 001°01'0 0.0
2017-Nov-14 07:28N 49°24' E 001°01'0 0.0
2017-Nov-14 06:58N 49°24' E 001°01'0 0.0
2017-Nov-14 06:28N 49°24' E 001°01'0 0.0
2017-Nov-14 05:58N 49°24' E 001°01'0 0.0
2017-Nov-14 05:28N 49°24' E 001°01'0 0.0
2017-Nov-14 04:58N 49°24' E 001°01'0 0.0
2017-Nov-14 04:28N 49°24' E 001°01'0 0.0
2017-Nov-14 03:58N 49°24' E 001°01'0 0.0
2017-Nov-14 03:28N 49°24' E 001°01'0 0.0
2017-Nov-14 02:55N 49°24' E 001°01'0 0.0
2017-Nov-14 02:28N 49°24' E 001°01'0 0.0
2017-Nov-14 01:58N 49°24' E 001°01'0 0.0
2017-Nov-14 01:28N 49°24' E 001°01'0 0.0
2017-Nov-14 00:58N 49°24' E 001°01'0 0.0
2017-Nov-14 00:28N 49°24' E 001°01'0 0.0
2017-Nov-13 23:58N 49°24' E 001°01'0 0.0
2017-Nov-13 23:28N 49°24' E 001°01'0 0.0
2017-Nov-13 22:58N 49°24' E 001°01'0 0.0
2017-Nov-13 22:28N 49°24' E 001°01'0 0.0
2017-Nov-13 21:55N 49°24' E 001°01'74 3.7
2017-Nov-13 02:01N 50°32' E 000°14'713.1
2017-Nov-13 01:31N 50°33' E 000°24'713.4
2017-Nov-13 01:01N 50°35' E 000°34'713.6
2017-Nov-13 00:30N 50°38' E 000°44'714.0
2017-Nov-13 00:00N 50°42' E 000°53'714.3
2017-Nov-12 23:30N 50°46' E 001°02'713.9
2017-Nov-12 22:59N 50°50' E 001°12'713.5
2017-Nov-12 22:30N 50°55' E 001°19'713.6
2017-Nov-12 22:00N 51°00' E 001°26'613.3
2017-Nov-12 21:30N 51°05' E 001°33'612.4
2017-Nov-12 21:00N 51°09' E 001°40'611.8
2017-Nov-12 20:30N 51°14' E 001°47'612.0
2017-Nov-12 20:00N 51°19' E 001°50'612.0
2017-Nov-12 19:30N 51°25' E 001°54'611.5
2017-Nov-12 19:00N 51°30' E 001°59'612.2
2017-Nov-12 18:30N 51°34' E 002°06'612.2
2017-Nov-12 17:59N 51°39' E 002°13'27411.7
2017-Nov-11 18:31N 55°37' E 006°01'111.4
2017-Nov-11 18:24N 55°38' E 006°02'511.6
2017-Nov-11 17:59N 55°42' E 006°07'611.7
2017-Nov-11 17:27N 55°48' E 006°12'18010.3
2017-Nov-10 23:56N 57°51' E 010°14'4 9.7
2017-Nov-10 23:29N 57°51' E 010°22'510.0
2017-Nov-10 23:00N 57°51' E 010°31'510.1
2017-Nov-10 22:30N 57°51' E 010°40'5 9.5
2017-Nov-10 22:00N 57°47' E 010°47'5 9.7
2017-Nov-10 21:31N 57°44' E 010°53'510.0
2017-Nov-10 21:00N 57°41' E 010°60'510.5
2017-Nov-10 20:30N 57°37' E 011°07'611.5
2017-Nov-10 20:00N 57°33' E 011°15'612.1
2017-Nov-10 19:30N 57°29' E 011°23'611.7
2017-Nov-10 19:00N 57°24' E 011°28'612.0
2017-Nov-10 18:30N 57°18' E 011°32'712.2
2017-Nov-10 17:55N 57°11' E 011°36'11810.8
2017-Nov-10 07:00N 55°15' E 011°06'510.5
2017-Nov-10 06:30N 55°10' E 011°01'611.2
2017-Nov-10 06:00N 55°04' E 010°60'510.9
2017-Nov-10 05:30N 54°59' E 010°58'510.1
2017-Nov-10 05:00N 54°55' E 010°53'5 9.2
2017-Nov-10 04:30N 54°51' E 010°50'510.8
2017-Nov-10 04:00N 54°46' E 010°48'510.7
2017-Nov-10 03:30N 54°40' E 010°49'612.1
2017-Nov-10 03:00N 54°37' E 010°58'611.7
2017-Nov-10 02:30N 54°35' E 011°07'611.8
2017-Nov-10 02:00N 54°34' E 011°17'611.9
2017-Nov-10 01:30N 54°31' E 011°26'611.8
2017-Nov-10 01:00N 54°29' E 011°36'  
Track history (hours):
 
Tides and Currents Weather Stations Pressure Air Temp Water Temp Dewpoint Dewpoint Depression Visibility Wind Speed Wind Dir Waves Ship Positions

Norient Saturn

Last reported at 2017-Nov-20 00:30 UTC. Time now 2017-Nov-21 11:55 UTC.
Position N 55°41' E 015°35'.

Length 180 m; draft 6.5 m.

Type: Tanker. MMSI: 636092659.

Date/timePositionNaut miles runAvg speedWind from/ knotsBaromVisibWave heightAir tempDewpointWater temp
2017-Nov-20 00:30N 55°41' E 015°35'611.6
2017-Nov-20 00:00N 55°38' E 015°26'611.7
2017-Nov-19 23:30N 55°35' E 015°17'611.5
2017-Nov-19 22:59N 55°33' E 015°08'511.4
2017-Nov-19 22:30N 55°30' E 014°59'611.3
2017-Nov-19 22:00N 55°27' E 014°50'611.1
2017-Nov-19 21:30N 55°25' E 014°42'510.5
2017-Nov-19 21:00N 55°21' E 014°36'5 9.8
2017-Nov-19 20:30N 55°17' E 014°31'510.4
2017-Nov-19 20:00N 55°13' E 014°25'510.4
2017-Nov-19 19:30N 55°11' E 014°17'811.4
2017-Nov-19 18:47N 55°10' E 014°02'3111.8
2017-Nov-19 16:11N 55°12' E 013°09'212.1
2017-Nov-19 16:00N 55°13' E 013°05'612.5
2017-Nov-19 15:30N 55°14' E 012°54'713.2
2017-Nov-19 15:00N 55°17' E 012°44'510.8
2017-Nov-19 14:30N 55°21' E 012°39'612.8
2017-Nov-19 14:00N 55°27' E 012°41'611.2
2017-Nov-19 13:30N 55°32' E 012°46'611.7
2017-Nov-19 13:00N 55°37' E 012°53'5 9.8
2017-Nov-19 12:30N 55°41' E 012°54'713.9
2017-Nov-19 12:01N 55°47' E 012°48'713.7
2017-Nov-19 11:30N 55°54' E 012°44'714.6
2017-Nov-19 11:00N 56°01' E 012°40'713.2
2017-Nov-19 10:30N 56°06' E 012°33'4 7.1
2017-Nov-19 10:00N 56°08' E 012°28'611.5
2017-Nov-19 09:30N 56°12' E 012°20'5813.1
2017-Nov-19 05:06N 57°05' E 011°38'213.3
2017-Nov-19 04:59N 57°06' E 011°37'613.1
2017-Nov-19 04:29N 57°12' E 011°33'613.2
2017-Nov-19 04:00N 57°18' E 011°31'713.3
2017-Nov-19 03:30N 57°25' E 011°26'31 5.2
2017-Nov-18 21:37N 57°40' E 010°37'0 0.4
2017-Nov-18 21:23N 57°40' E 010°37'1 1.9
2017-Nov-18 21:00N 57°40' E 010°38'4 6.6
2017-Nov-18 20:28N 57°43' E 010°43'3 6.1
2017-Nov-18 20:00N 57°45' E 010°45'510.0
2017-Nov-18 19:30N 57°48' E 010°37'47210.9
2017-Nov-17 00:24N 51°35' E 002°20'513.7
2017-Nov-17 00:00N 51°30' E 002°14'713.4
2017-Nov-16 23:30N 51°25' E 002°08'612.6
2017-Nov-16 23:01N 51°19' E 002°07'612.7
2017-Nov-16 22:30N 51°13' E 002°02'713.5
2017-Nov-16 22:00N 51°10' E 001°53'713.2
2017-Nov-16 21:30N 51°07' E 001°43'612.7
2017-Nov-16 21:00N 51°02' E 001°36'612.3
2017-Nov-16 20:30N 50°58' E 001°29'611.5
2017-Nov-16 19:59N 50°53' E 001°25'611.8
2017-Nov-16 19:30N 50°47' E 001°23'6011.6
2017-Nov-16 14:21N 50°17' E 000°02'611.5
2017-Nov-16 13:52N 50°14' W 000°05'511.3
2017-Nov-16 13:26N 50°11' W 000°12'511.2
2017-Nov-16 13:00N 50°08' W 000°18'611.2
2017-Nov-16 12:30N 50°06' W 000°25'611.2
2017-Nov-16 12:00N 50°03' W 000°33'611.3
2017-Nov-16 11:30N 49°60' W 000°40'611.1
2017-Nov-16 11:00N 49°56' W 000°47'713.3
2017-Nov-16 10:30N 49°51' W 000°40'712.9
2017-Nov-16 10:00N 49°45' W 000°34'612.6
2017-Nov-16 09:30N 49°41' W 000°27'612.3
2017-Nov-16 09:00N 49°37' W 000°20'612.6
2017-Nov-16 08:30N 49°32' W 000°14'612.3
2017-Nov-16 08:01N 49°30' W 000°06'510.6
2017-Nov-16 07:30N 49°27' E 000°02'612.6
2017-Nov-16 07:00N 49°26' E 000°11'611.3
2017-Nov-16 06:30N 49°26' E 000°20'5 9.2
2017-Nov-16 06:00N 49°28' E 000°26'4 7.5
2017-Nov-16 05:30N 49°28' E 000°32'4 8.6
2017-Nov-16 05:00N 49°26' E 000°38'611.1
2017-Nov-16 04:30N 49°31' E 000°43'5 9.2
2017-Nov-16 04:00N 49°29' E 000°48'510.1
2017-Nov-16 03:31N 49°24' E 000°50'510.4
2017-Nov-16 03:00N 49°29' E 000°52'4 8.7
2017-Nov-16 02:30N 49°25' E 000°56'4 8.3
2017-Nov-16 02:00N 49°21' E 000°59'4 7.9
2017-Nov-16 01:30N 49°25' E 001°01'0 0.9
2017-Nov-16 01:00N 49°25' E 001°01'1 2.7
2017-Nov-16 00:28N 49°24' E 001°01'0 0.0
2017-Nov-15 23:58N 49°24' E 001°01'0 0.0
2017-Nov-15 23:28N 49°24' E 001°01'0 0.0
2017-Nov-15 22:58N 49°24' E 001°01'0 0.0
2017-Nov-15 22:28N 49°24' E 001°01'0 0.0
2017-Nov-15 21:58N 49°24' E 001°01'0 0.0
2017-Nov-15 21:28N 49°24' E 001°01'0 0.0
2017-Nov-15 20:58N 49°24' E 001°01'0 0.0
2017-Nov-15 20:28N 49°24' E 001°01'0 0.0
2017-Nov-15 19:58N 49°24' E 001°01'0 0.0
2017-Nov-15 19:28N 49°24' E 001°01'0 0.0
2017-Nov-15 18:58N 49°24' E 001°01'0 0.0
2017-Nov-15 18:28N 49°24' E 001°01'0 0.0
2017-Nov-15 17:58N 49°24' E 001°01'0 0.0
2017-Nov-15 17:28N 49°24' E 001°01'0 0.0
2017-Nov-15 16:58N 49°24' E 001°01'0 0.0
2017-Nov-15 16:28N 49°24' E 001°01'0 0.0
2017-Nov-15 15:58N 49°24' E 001°01'0 0.0
2017-Nov-15 15:28N 49°24' E 001°01'0 0.0
2017-Nov-15 14:58N 49°24' E 001°01'0 0.0
2017-Nov-15 14:28N 49°24' E 001°01'0 0.0
2017-Nov-15 13:58N 49°24' E 001°01'0 0.0
2017-Nov-15 13:28N 49°24' E 001°01'0 0.0
2017-Nov-15 12:58N 49°24' E 001°01'0 0.0
2017-Nov-15 12:25N 49°24' E 001°01'0 0.0
2017-Nov-15 11:58N 49°24' E 001°01'0 0.0
2017-Nov-15 11:28N 49°24' E 001°01'0 0.0
2017-Nov-15 10:58N 49°24' E 001°01'0 0.0
2017-Nov-15 10:28N 49°24' E 001°01'0 0.0
2017-Nov-15 09:58N 49°24' E 001°01'0 0.0
2017-Nov-15 09:28N 49°24' E 001°01'0 0.0
2017-Nov-15 08:58N 49°24' E 001°01'0 0.0
2017-Nov-15 08:28N 49°24' E 001°01'0 0.0
2017-Nov-15 07:58N 49°24' E 001°01'0 0.0
2017-Nov-15 07:28N 49°24' E 001°01'0 0.0
2017-Nov-15 06:58N 49°24' E 001°01'0 0.0
2017-Nov-15 06:28N 49°24' E 001°01'0 0.0
2017-Nov-15 05:58N 49°24' E 001°01'0 0.0
2017-Nov-15 05:28N 49°24' E 001°01'0 0.0
2017-Nov-15 04:58N 49°24' E 001°01'0 0.0
2017-Nov-15 04:28N 49°24' E 001°01'0 0.0
2017-Nov-15 03:55N 49°24' E 001°01'0 0.0
2017-Nov-15 03:28N 49°24' E 001°01'0 0.0
2017-Nov-15 02:58N 49°24' E 001°01'0 0.0
2017-Nov-15 02:28N 49°24' E 001°01'0 0.0
2017-Nov-15 01:58N 49°24' E 001°01'0 0.0
2017-Nov-15 01:28N 49°24' E 001°01'0 0.0
2017-Nov-15 00:58N 49°24' E 001°01'0 0.0
2017-Nov-15 00:28N 49°24' E 001°01'0 0.0
2017-Nov-14 23:58N 49°24' E 001°01'0 0.0
2017-Nov-14 23:25N 49°24' E 001°01'0 0.0
2017-Nov-14 22:58N 49°24' E 001°01'0 0.0
2017-Nov-14 22:28N 49°24' E 001°01'0 0.0
2017-Nov-14 21:58N 49°24' E 001°01'0 0.0
2017-Nov-14 21:28N 49°24' E 001°01'0 0.0
2017-Nov-14 20:58N 49°24' E 001°01'0 0.0
2017-Nov-14 20:25N 49°24' E 001°01'0 0.0
2017-Nov-14 19:58N 49°24' E 001°01'0 0.0
2017-Nov-14 19:28N 49°24' E 001°01'0 0.0
2017-Nov-14 18:58N 49°24' E 001°01'0 0.0
2017-Nov-14 18:28N 49°24' E 001°01'0 0.0
2017-Nov-14 17:58N 49°24' E 001°01'0 0.0
2017-Nov-14 17:28N 49°24' E 001°01'0 0.0
2017-Nov-14 16:58N 49°24' E 001°01'0 0.0
2017-Nov-14 16:28N 49°24' E 001°01'0 0.0
2017-Nov-14 15:58N 49°24' E 001°01'0 0.0
2017-Nov-14 15:28N 49°24' E 001°01'0 0.0
2017-Nov-14 14:58N 49°24' E 001°01'0 0.0
2017-Nov-14 14:28N 49°24' E 001°01'0 0.0
2017-Nov-14 13:58N 49°24' E 001°01'0 0.0
2017-Nov-14 13:28N 49°24' E 001°01'0 0.0
2017-Nov-14 12:58N 49°24' E 001°01'0 0.0
2017-Nov-14 12:28N 49°24' E 001°01'0 0.0
2017-Nov-14 11:58N 49°24' E 001°01'0 0.0
2017-Nov-14 11:28N 49°24' E 001°01'0 0.0
2017-Nov-14 10:58N 49°24' E 001°01'0 0.0
2017-Nov-14 10:28N 49°24' E 001°01'0 0.0
2017-Nov-14 09:58N 49°24' E 001°01'0 0.0
2017-Nov-14 09:28N 49°24' E 001°01'0 0.0
2017-Nov-14 08:58N 49°24' E 001°01'0 0.0
2017-Nov-14 08:28N 49°24' E 001°01'0 0.0
2017-Nov-14 07:58N 49°24' E 001°01'0 0.0
2017-Nov-14 07:28N 49°24' E 001°01'0 0.0
2017-Nov-14 06:58N 49°24' E 001°01'0 0.0
2017-Nov-14 06:28N 49°24' E 001°01'0 0.0
2017-Nov-14 05:58N 49°24' E 001°01'0 0.0
2017-Nov-14 05:28N 49°24' E 001°01'0 0.0
2017-Nov-14 04:58N 49°24' E 001°01'0 0.0
2017-Nov-14 04:28N 49°24' E 001°01'0 0.0
2017-Nov-14 03:58N 49°24' E 001°01'0 0.0
2017-Nov-14 03:28N 49°24' E 001°01'0 0.0
2017-Nov-14 02:55N 49°24' E 001°01'0 0.0
2017-Nov-14 02:28N 49°24' E 001°01'0 0.0
2017-Nov-14 01:58N 49°24' E 001°01'0 0.0
2017-Nov-14 01:28N 49°24' E 001°01'0 0.0
2017-Nov-14 00:58N 49°24' E 001°01'0 0.0
2017-Nov-14 00:28N 49°24' E 001°01'0 0.0
2017-Nov-13 23:58N 49°24' E 001°01'0 0.0
2017-Nov-13 23:28N 49°24' E 001°01'0 0.0
2017-Nov-13 22:58N 49°24' E 001°01'0 0.0
2017-Nov-13 22:28N 49°24' E 001°01'0 0.0
2017-Nov-13 21:55N 49°24' E 001°01'74 3.7
2017-Nov-13 02:01N 50°32' E 000°14'713.1
2017-Nov-13 01:31N 50°33' E 000°24'713.4
2017-Nov-13 01:01N 50°35' E 000°34'713.6
2017-Nov-13 00:30N 50°38' E 000°44'714.0
2017-Nov-13 00:00N 50°42' E 000°53'714.3
2017-Nov-12 23:30N 50°46' E 001°02'713.9
2017-Nov-12 22:59N 50°50' E 001°12'713.5
2017-Nov-12 22:30N 50°55' E 001°19'713.6
2017-Nov-12 22:00N 51°00' E 001°26'613.3
2017-Nov-12 21:30N 51°05' E 001°33'612.4
2017-Nov-12 21:00N 51°09' E 001°40'611.8
2017-Nov-12 20:30N 51°14' E 001°47'612.0
2017-Nov-12 20:00N 51°19' E 001°50'612.0
2017-Nov-12 19:30N 51°25' E 001°54'611.5
2017-Nov-12 19:00N 51°30' E 001°59'612.2
2017-Nov-12 18:30N 51°34' E 002°06'612.2
2017-Nov-12 17:59N 51°39' E 002°13'27411.7
2017-Nov-11 18:31N 55°37' E 006°01'111.4
2017-Nov-11 18:24N 55°38' E 006°02'511.6
2017-Nov-11 17:59N 55°42' E 006°07'611.7
2017-Nov-11 17:27N 55°48' E 006°12'18010.3
2017-Nov-10 23:56N 57°51' E 010°14'4 9.7
2017-Nov-10 23:29N 57°51' E 010°22'510.0
2017-Nov-10 23:00N 57°51' E 010°31'510.1
2017-Nov-10 22:30N 57°51' E 010°40'5 9.5
2017-Nov-10 22:00N 57°47' E 010°47'5 9.7
2017-Nov-10 21:31N 57°44' E 010°53'510.0
2017-Nov-10 21:00N 57°41' E 010°60'510.5
2017-Nov-10 20:30N 57°37' E 011°07'611.5
2017-Nov-10 20:00N 57°33' E 011°15'612.1
2017-Nov-10 19:30N 57°29' E 011°23'611.7
2017-Nov-10 19:00N 57°24' E 011°28'612.0
2017-Nov-10 18:30N 57°18' E 011°32'712.2
2017-Nov-10 17:55N 57°11' E 011°36'11810.8
2017-Nov-10 07:00N 55°15' E 011°06'510.5
2017-Nov-10 06:30N 55°10' E 011°01'611.2
2017-Nov-10 06:00N 55°04' E 010°60'510.9
2017-Nov-10 05:30N 54°59' E 010°58'510.1
2017-Nov-10 05:00N 54°55' E 010°53'5 9.2
2017-Nov-10 04:30N 54°51' E 010°50'510.8
2017-Nov-10 04:00N 54°46' E 010°48'510.7
2017-Nov-10 03:30N 54°40' E 010°49'612.1
2017-Nov-10 03:00N 54°37' E 010°58'611.7
2017-Nov-10 02:30N 54°35' E 011°07'611.8
2017-Nov-10 02:00N 54°34' E 011°17'611.9
2017-Nov-10 01:30N 54°31' E 011°26'611.8
2017-Nov-10 01:00N 54°29' E 011°36'  

Dump ship's entire track history